Adak, Alaska
Current Conditions -  °F | °C
As of 3:16 AM on Sunday 23 Nov 2014 (Local Time) from PADK Reporting Station
Broken Clouds Broken Clouds  
Wind Chill: -2°   Ceiling: 3200
Heat Index:   Visibility: 8mi
Dew Point: -3°   Wind: 8mph
Humidity: 70%   Direction: 330°NNW
Pressure: 29.74"   Gusts: 21mph
Location:  51.88°N, 176.66°W
Report Text: PADK 231316Z AUTO 33007G18KT 8SM FEW015 SCT023 BKN032 02/M03 A2974 RMK AO1
Loading
Personal Weather Stations






























Interactive Weather Map New forecast layout! Learn more

10-Day Weather Forecast

Advertisements
Track Severe Weather on mobile